Harbison, Indiana
Current Conditions -  °F | °C
As of 2:15 PM on Friday 31 Oct 2014 (Local Time) from KHNB Reporting Station
Broken Clouds Broken Clouds  
Wind Chill: 34°   Ceiling: 6000
Heat Index: 43°   Visibility: 10mi
Dew Point: 28°   Wind: 21mph
Humidity: 57%   Direction: 360°N
Pressure: 30.09"   Gusts: 31mph
Location:  38.4736°N, 86.7813°W
Report Text: KHNB 311915Z AUTO 36018G27KT 10SM FEW037 SCT047 BKN060 06/M02 A3009 RMK AO1
Loading
Personal Weather Stations






























Interactive Weather Map
Tropical Storm Tracking
New forecast layout! Learn more

10-Day Weather Forecast

Advertisements
Track Severe Weather on mobile